πŸ“Š DonnΓ©es MΓ©tΓ©o - Bordeaux

Total mesures

14,504

TempΓ©rature moyenne

18.9Β°C

Temp. Min/Max

2.9Β° / 42.4Β°

HumiditΓ© moyenne

64.8%

Pression moyenne

1014.7 hPa
enregistrements
ID Date/Heure Temp (Β°C) HumiditΓ© (%) Pression (hPa) Tendance LuminositΓ© (lux) Situation
6404 21/04/2026 00:30 15.9 53.0 1,009.7 β†’ Stable 0 frais-stable
6403 21/04/2026 00:15 16.1 53.0 1,009.7 β†’ Stable 0 frais-stable
6402 20/04/2026 23:45 16.5 52.0 1,009.5 β†’ Stable 0 frais-stable
6401 20/04/2026 23:30 16.8 51.0 1,009.5 β†’ Stable 0 frais-stable
6400 20/04/2026 23:15 16.9 52.0 1,009.5 β†’ Stable 0 frais-stable
6399 20/04/2026 22:45 17.2 51.0 1,009.5 β†’ Stable 0 frais-stable
6398 20/04/2026 22:15 17.9 49.0 1,009.5 β†’ Stable 0 frais-stable
6397 20/04/2026 21:45 18.3 48.0 1,009.4 β†’ Stable 0 frais-stable
6396 20/04/2026 21:30 18.8 46.0 1,009.4 β†’ Stable 0 frais-stable
6395 20/04/2026 21:15 19.1 46.0 1,009.4 β†’ Stable 0 frais-stable
6394 20/04/2026 20:45 19.7 44.0 1,009.3 β†’ Stable 0 frais-stable
6393 20/04/2026 20:30 20.1 43.0 1,009.3 β†’ Stable 0 frais-stable
6392 20/04/2026 20:15 20.4 42.0 1,009.3 β†’ Stable 0 frais-stable
6391 20/04/2026 19:45 21.0 39.0 1,008.7 β†’ Stable 0 conditions-neutrales-ou-non-definies
6390 20/04/2026 19:30 21.9 35.0 1,008.7 β†’ Stable 0 conditions-neutrales-ou-non-definies
6389 20/04/2026 19:15 22.1 35.0 1,008.7 β†’ Stable 0 conditions-neutrales-ou-non-definies
6388 20/04/2026 18:45 22.7 34.0 1,008.8 β†’ Stable 2,316 conditions-neutrales-ou-non-definies
6387 20/04/2026 18:30 23.4 31.0 1,008.8 β†’ Stable 6,300 conditions-neutrales-ou-non-definies
6386 20/04/2026 18:15 23.7 33.0 1,008.8 β†’ Stable 10,836 conditions-neutrales-ou-non-definies
6385 20/04/2026 17:45 24.3 31.0 1,008.8 β†’ Stable 19,812 conditions-neutrales-ou-non-definies
6384 20/04/2026 17:30 24.7 30.0 1,008.8 β†’ Stable 26,292 conditions-neutrales-ou-non-definies
6383 20/04/2026 17:15 24.9 30.0 1,008.8 β†’ Stable 32,040 conditions-neutrales-ou-non-definies
6382 20/04/2026 16:45 25.2 33.0 1,008.8 β†’ Stable 42,228 conditions-neutrales-ou-non-definies
6381 20/04/2026 16:15 25.6 31.0 1,008.8 β†’ Stable 53,520 conditions-neutrales-ou-non-definies
6380 20/04/2026 15:45 25.9 31.0 1,008.6 β†’ Stable 62,964 conditions-neutrales-ou-non-definies
6379 20/04/2026 15:15 26.1 25.0 1,008.6 β†’ Stable 73,608 confortablement-chaud (approx.)
6378 20/04/2026 14:45 26.1 27.0 1,009.2 β†’ Stable 81,300 confortablement-chaud (approx.)
6377 20/04/2026 14:15 26.0 28.0 1,009.2 β†’ Stable 87,588 confortablement-chaud (approx.)
6376 20/04/2026 13:45 25.8 30.0 1,009.8 β†’ Stable 92,592 confortablement-chaud (approx.)
6375 20/04/2026 13:15 25.4 31.0 1,009.9 β†’ Stable 96,384 confortablement-chaud (approx.)
6374 20/04/2026 12:45 24.9 31.0 1,010.4 β†’ Stable 98,796 confortablement-chaud (approx.)
6373 20/04/2026 12:15 24.3 33.0 1,010.4 β†’ Stable 99,816 confortablement-chaud (approx.)
6372 20/04/2026 11:45 23.7 34.0 1,011.0 β†’ Stable 99,348 conditions-neutrales-ou-non-definies
6371 20/04/2026 11:15 22.8 38.0 1,011.0 β†’ Stable 97,500 conditions-neutrales-ou-non-definies
6370 20/04/2026 10:45 21.9 41.0 1,011.5 β†’ Stable 94,260 frais-stable
6369 20/04/2026 10:15 20.8 44.0 1,011.5 β†’ Stable 89,448 frais-stable
6368 20/04/2026 09:45 19.5 48.0 1,011.8 β†’ Stable 83,616 frais-stable
6367 20/04/2026 09:15 18.1 49.0 1,011.8 β†’ Stable 74,076 frais-stable
6366 20/04/2026 08:45 17.1 52.0 1,012.2 β†’ Stable 65,736 frais-stable
6365 20/04/2026 08:15 16.3 46.0 1,012.2 β†’ Stable 53,424 frais-stable
6364 20/04/2026 07:45 15.4 48.0 1,012.7 β†’ Stable 40,368 frais-stable
6363 20/04/2026 07:15 14.6 47.0 1,012.7 β†’ Stable 30,468 frais-stable
6362 20/04/2026 06:15 13.1 53.0 1,012.3 β†’ Stable 9,996 frais-stable
6361 20/04/2026 05:45 12.7 54.0 1,012.0 β†’ Stable 4,080 frais-stable
6360 20/04/2026 05:15 12.9 51.0 1,012.0 β†’ Stable 0 frais-stable
6359 20/04/2026 04:45 13.2 49.0 1,012.1 β†’ Stable 0 frais-stable
6358 20/04/2026 04:15 13.5 49.0 1,012.1 β†’ Stable 0 frais-stable
6357 20/04/2026 03:45 13.8 48.0 1,012.4 β†’ Stable 0 frais-stable
6356 20/04/2026 03:15 14.2 46.0 1,012.4 β†’ Stable 0 frais-stable
6355 20/04/2026 02:45 14.5 45.0 1,012.5 β†’ Stable 0 frais-stable
6354 20/04/2026 02:30 14.4 46.0 1,012.5 β†’ Stable 0 frais-stable
6353 20/04/2026 02:15 14.6 45.0 1,012.5 β†’ Stable 0 frais-stable
6352 20/04/2026 01:45 14.9 45.0 1,012.8 β†’ Stable 0 frais-stable
6351 20/04/2026 01:30 15.1 45.0 1,012.8 β†’ Stable 0 frais-stable
6350 20/04/2026 01:15 15.2 45.0 1,012.9 β†’ Stable 0 frais-stable
6349 20/04/2026 00:45 15.6 44.0 1,013.3 β†’ Stable 0 frais-stable
6348 20/04/2026 00:30 15.8 43.0 1,013.3 β†’ Stable 0 frais-stable
6347 20/04/2026 00:15 16.1 42.0 1,013.3 β†’ Stable 0 frais-stable
6346 19/04/2026 23:45 16.6 41.0 1,013.6 β†’ Stable 0 frais-stable
6345 19/04/2026 23:15 17.0 41.0 1,013.6 β†’ Stable 0 frais-stable
6344 19/04/2026 22:45 17.5 40.0 1,013.5 β†’ Stable 0 frais-stable
6343 19/04/2026 21:45 18.8 36.0 1,013.7 β†’ Stable 0 conditions-neutrales-ou-non-definies
6342 19/04/2026 21:30 19.2 36.0 1,013.7 β†’ Stable 0 conditions-neutrales-ou-non-definies
6341 19/04/2026 21:15 19.6 35.0 1,013.7 β†’ Stable 0 conditions-neutrales-ou-non-definies
6340 19/04/2026 20:45 20.3 33.0 1,013.9 β†’ Stable 0 conditions-neutrales-ou-non-definies
6339 19/04/2026 20:30 20.5 32.0 1,013.9 β†’ Stable 0 conditions-neutrales-ou-non-definies
6338 19/04/2026 20:15 20.7 32.0 1,013.9 β†’ Stable 0 conditions-neutrales-ou-non-definies
6337 19/04/2026 19:45 21.3 31.0 1,013.4 β†’ Stable 0 conditions-neutrales-ou-non-definies
6336 19/04/2026 19:15 21.7 31.0 1,013.4 β†’ Stable 0 conditions-neutrales-ou-non-definies
6335 19/04/2026 18:45 22.3 32.0 1,013.4 β†’ Stable 2,124 conditions-neutrales-ou-non-definies
6334 19/04/2026 18:30 22.7 30.0 1,013.4 β†’ Stable 6,108 conditions-neutrales-ou-non-definies
6333 19/04/2026 18:15 23.1 31.0 1,013.4 β†’ Stable 10,560 conditions-neutrales-ou-non-definies
6332 19/04/2026 17:45 23.7 31.0 1,013.4 β†’ Stable 19,356 conditions-neutrales-ou-non-definies
6331 19/04/2026 17:30 23.9 31.0 1,013.4 β†’ Stable 25,836 conditions-neutrales-ou-non-definies
6330 19/04/2026 17:15 24.1 30.0 1,013.4 β†’ Stable 31,572 conditions-neutrales-ou-non-definies
6329 19/04/2026 16:45 24.5 30.0 1,013.8 β†’ Stable 41,760 conditions-neutrales-ou-non-definies
6328 19/04/2026 16:15 24.6 30.0 1,013.8 β†’ Stable 53,520 conditions-neutrales-ou-non-definies
6327 19/04/2026 15:45 24.7 31.0 1,013.9 β†’ Stable 63,144 conditions-neutrales-ou-non-definies
6326 19/04/2026 15:15 24.7 31.0 1,013.9 β†’ Stable 73,152 confortablement-chaud (approx.)
6325 19/04/2026 14:45 24.6 32.0 1,014.7 β†’ Stable 81,024 confortablement-chaud (approx.)
6324 19/04/2026 14:15 24.3 35.0 1,014.7 β†’ Stable 87,228 confortablement-chaud (approx.)
6323 19/04/2026 13:45 24.4 33.0 1,015.5 β†’ Stable 92,316 confortablement-chaud (approx.)
6322 19/04/2026 13:15 23.9 34.0 1,015.7 β†’ Stable 96,024 conditions-neutrales-ou-non-definies
6321 19/04/2026 12:45 23.4 36.0 1,016.5 β†’ Stable 98,424 conditions-neutrales-ou-non-definies
6320 19/04/2026 12:15 23.0 39.0 1,016.5 β†’ Stable 99,444 conditions-neutrales-ou-non-definies
6319 19/04/2026 11:45 22.4 41.0 1,017.3 β†’ Stable 98,976 frais-stable
6318 19/04/2026 11:15 21.5 45.0 1,017.3 β†’ Stable 97,128 frais-stable
6317 19/04/2026 10:45 20.6 49.0 1,017.9 β†’ Stable 93,888 frais-stable
6316 19/04/2026 10:15 19.4 54.0 1,017.9 β†’ Stable 81,852 frais-stable
6315 19/04/2026 09:45 18.4 59.0 1,018.2 β†’ Stable 76,200 frais-stable
6314 19/04/2026 09:15 17.3 62.0 1,018.2 β†’ Stable 64,908 frais-stable
6313 19/04/2026 08:45 16.3 66.0 1,018.6 β†’ Stable 58,704 frais-stable
6312 19/04/2026 08:15 15.3 68.0 1,018.6 β†’ Stable 45,000 frais-stable
6311 19/04/2026 07:45 14.6 71.0 1,018.8 β†’ Stable 37,500 pluvieux-gris
6310 19/04/2026 07:30 14.4 70.0 1,018.8 β†’ Stable 32,964 pluvieux-gris
6309 19/04/2026 07:15 14.1 71.0 1,018.8 β†’ Stable 27,504 pluvieux-gris
6308 19/04/2026 06:45 13.8 74.0 1,018.6 β†’ Stable 19,356 pluvieux-gris
6307 19/04/2026 06:30 13.6 75.0 1,018.6 β†’ Stable 13,980 pluvieux-gris
6306 19/04/2026 06:15 13.2 77.0 1,018.6 β†’ Stable 9,720 pluvieux-gris
6305 19/04/2026 05:45 12.9 81.0 1,018.2 β†’ Stable 3,708 pluvieux-gris